createdAt,value
2018-09-26T00:00:39.700Z,86.10
2018-09-26T00:03:15.489Z,85.50
2018-09-26T00:05:43.979Z,86.00
2018-09-26T00:08:12.519Z,86.20
2018-09-26T00:10:41.074Z,86.50
2018-09-26T00:13:09.566Z,86.40
2018-09-26T00:15:38.031Z,86.00
2018-09-26T00:18:06.816Z,86.50
2018-09-26T00:20:35.631Z,85.90
2018-09-26T00:23:04.098Z,86.20
2018-09-26T00:25:32.642Z,86.30
2018-09-26T00:28:01.075Z,86.70
2018-09-26T00:30:29.701Z,86.30
2018-09-26T00:32:58.237Z,86.70
2018-09-26T00:35:26.665Z,86.70
2018-09-26T00:37:55.434Z,87.00
2018-09-26T00:40:23.923Z,86.50
2018-09-26T00:42:52.454Z,86.90
2018-09-26T00:45:20.971Z,87.10
2018-09-26T00:47:49.448Z,88.00
2018-09-26T00:50:17.868Z,88.00
2018-09-26T00:52:46.330Z,87.50
2018-09-26T00:55:14.775Z,87.50
2018-09-26T00:57:43.218Z,87.20
2018-09-26T01:00:11.670Z,87.40
2018-09-26T01:02:40.112Z,87.70
2018-09-26T01:05:08.592Z,88.40
2018-09-26T01:07:37.079Z,88.00
2018-09-26T01:10:05.615Z,87.60
2018-09-26T01:12:34.167Z,87.90
2018-09-26T01:15:02.571Z,87.90
2018-09-26T01:17:31.103Z,88.40
2018-09-26T01:19:59.631Z,88.90
2018-09-26T01:22:28.110Z,88.50
2018-09-26T01:24:56.542Z,88.90
2018-09-26T01:27:25.054Z,89.30
2018-09-26T01:29:53.494Z,89.10
2018-09-26T01:32:22.202Z,89.40
2018-09-26T01:34:50.788Z,89.40
2018-09-26T01:37:19.277Z,90.00
2018-09-26T01:39:47.823Z,90.00
2018-09-26T01:42:16.355Z,89.70
2018-09-26T01:44:44.798Z,90.00
2018-09-26T01:47:13.316Z,90.30
2018-09-26T01:49:41.829Z,90.20
2018-09-26T01:52:10.445Z,90.30
2018-09-26T01:54:38.882Z,90.40
2018-09-26T01:57:07.478Z,90.50
2018-09-26T01:59:36.086Z,90.60
2018-09-26T02:02:04.778Z,90.70
2018-09-26T02:04:33.212Z,90.70
2018-09-26T02:07:01.798Z,90.80
2018-09-26T02:09:30.332Z,90.60
2018-09-26T02:11:58.912Z,90.70
2018-09-26T02:14:27.541Z,91.00
2018-09-26T02:16:55.984Z,91.10
2018-09-26T02:19:24.457Z,91.10
2018-09-26T02:21:52.879Z,91.30
2018-09-26T02:24:21.326Z,91.20
2018-09-26T02:26:49.862Z,91.20
2018-09-26T02:29:18.329Z,91.30
2018-09-26T02:31:46.858Z,91.40
2018-09-26T02:34:15.398Z,91.30
2018-09-26T02:36:43.886Z,91.60
2018-09-26T02:39:12.336Z,91.60
2018-09-26T02:41:40.833Z,91.90
2018-09-26T02:44:09.446Z,92.00
2018-09-26T02:46:37.863Z,91.90
2018-09-26T02:49:07.209Z,91.90
2018-09-26T02:51:37.275Z,92.00
2018-09-26T02:54:06.343Z,92.00
2018-09-26T02:56:34.807Z,92.10
2018-09-26T02:59:03.440Z,91.80
2018-09-26T03:01:32.057Z,92.00
2018-09-26T03:04:00.518Z,92.00
2018-09-26T03:06:29.040Z,92.00
2018-09-26T03:08:57.492Z,92.20
2018-09-26T03:13:54.168Z,92.50
2018-09-26T03:16:22.589Z,92.50
2018-09-26T03:18:51.054Z,92.70
2018-09-26T03:21:19.551Z,93.00
2018-09-26T03:23:48.082Z,93.00
2018-09-26T03:26:16.530Z,92.90
2018-09-26T03:28:45.023Z,93.10
2018-09-26T03:31:13.469Z,93.00
2018-09-26T03:33:42.086Z,93.30
2018-09-26T03:36:10.714Z,93.40
2018-09-26T03:38:39.210Z,93.60
2018-09-26T03:41:07.734Z,93.60
2018-09-26T03:43:36.213Z,93.80
2018-09-26T03:46:04.692Z,93.90
2018-09-26T03:48:33.169Z,93.90
2018-09-26T03:51:01.717Z,94.00
2018-09-26T03:53:30.356Z,94.10
2018-09-26T03:55:58.881Z,94.40
2018-09-26T03:58:27.333Z,94.30
2018-09-26T04:03:24.095Z,94.20
2018-09-26T04:05:52.533Z,94.10
2018-09-26T04:08:20.971Z,94.40
2018-09-26T04:10:49.438Z,94.50
2018-09-26T04:15:51.600Z,94.20
2018-09-26T04:18:20.957Z,94.30
2018-09-26T04:23:17.926Z,94.70
2018-09-26T04:25:46.699Z,95.00
2018-09-26T04:28:15.187Z,94.80
2018-09-26T04:30:43.829Z,95.30
2018-09-26T04:33:12.545Z,95.20
2018-09-26T04:38:09.587Z,95.70
2018-09-26T04:40:38.315Z,95.60
2018-09-26T04:43:06.818Z,95.60
2018-09-26T04:45:35.379Z,95.70
2018-09-26T04:48:04.095Z,95.70
2018-09-26T04:55:29.039Z,96.40
2018-09-26T04:57:57.943Z,96.00
2018-09-26T05:00:26.532Z,96.40
2018-09-26T05:05:23.273Z,96.40
2018-09-26T05:07:51.727Z,96.70
2018-09-26T05:10:20.263Z,96.40
2018-09-26T05:12:48.683Z,96.50
2018-09-26T05:15:17.471Z,96.80
2018-09-26T05:20:14.348Z,96.40
2018-09-26T05:22:42.842Z,96.90
2018-09-26T05:32:36.342Z,96.70
2018-09-26T05:35:04.761Z,96.80
2018-09-26T05:37:33.280Z,96.80
2018-09-26T05:40:01.789Z,97.20
2018-09-26T05:42:30.379Z,96.70
2018-09-26T05:44:58.811Z,96.40
2018-09-26T05:47:27.269Z,96.60
2018-09-26T05:54:52.041Z,96.30
2018-09-26T05:59:48.623Z,95.80
2018-09-26T06:02:17.210Z,95.50
2018-09-26T06:09:42.084Z,95.90
2018-09-26T06:12:10.535Z,95.70
2018-09-26T06:14:38.945Z,96.00
2018-09-26T06:17:07.382Z,95.50
2018-09-26T06:19:35.819Z,95.40
2018-09-26T06:22:04.222Z,95.00
2018-09-26T06:24:32.690Z,95.10
2018-09-26T06:27:01.592Z,95.00
2018-09-26T06:31:58.235Z,94.90
2018-09-26T06:39:23.131Z,93.40
2018-09-26T06:46:48.136Z,94.00
2018-09-26T06:49:16.626Z,94.10
2018-09-26T06:56:41.812Z,93.90
2018-09-26T06:59:10.328Z,94.00
2018-09-26T07:01:38.814Z,93.40
2018-09-26T07:16:28.574Z,92.30
2018-09-26T07:18:56.996Z,92.30
2018-09-26T07:21:25.456Z,92.10
2018-09-26T07:23:54.111Z,91.50
2018-09-26T07:28:51.306Z,91.00
2018-09-26T07:31:20.107Z,90.50
2018-09-26T07:33:49.070Z,90.40
2018-09-26T07:36:17.547Z,90.50
2018-09-26T07:41:14.746Z,95.70
2018-09-26T07:43:44.378Z,94.60
2018-09-26T07:46:13.754Z,93.50
2018-09-26T07:48:42.499Z,93.30
2018-09-26T07:51:10.937Z,92.10
2018-09-26T07:53:40.001Z,92.20
2018-09-26T07:56:08.434Z,90.90
2018-09-26T07:58:36.975Z,91.60
2018-09-26T08:01:05.563Z,91.20
2018-09-26T08:03:34.087Z,90.00
2018-09-26T08:06:02.786Z,87.20
2018-09-26T08:08:31.382Z,87.20
2018-09-26T08:11:00.176Z,87.70
2018-09-26T08:13:28.686Z,84.80
2018-09-26T08:15:57.124Z,82.90
2018-09-26T08:18:25.639Z,83.00
2018-09-26T08:20:54.048Z,82.80
2018-09-26T08:23:22.785Z,80.50
2018-09-26T08:25:51.215Z,80.40
2018-09-26T08:28:19.664Z,79.30
2018-09-26T08:30:48.337Z,77.50
2018-09-26T08:33:16.806Z,77.80
2018-09-26T08:35:45.261Z,75.60
2018-09-26T08:38:13.740Z,75.70
2018-09-26T08:40:42.356Z,76.60
2018-09-26T08:43:10.839Z,76.50
2018-09-26T08:45:39.300Z,77.10
2018-09-26T08:48:07.902Z,77.90
2018-09-26T08:50:36.343Z,77.00
2018-09-26T08:53:04.815Z,76.60
2018-09-26T08:55:33.231Z,74.80
2018-09-26T08:58:01.684Z,73.50
2018-09-26T09:00:34.877Z,74.00
2018-09-26T09:03:04.479Z,73.60
2018-09-26T09:05:32.913Z,72.80
2018-09-26T09:08:01.787Z,71.00
2018-09-26T09:10:30.252Z,70.80
2018-09-26T09:12:58.935Z,70.90
2018-09-26T09:15:28.339Z,69.70
2018-09-26T09:17:56.861Z,69.10
2018-09-26T09:20:25.483Z,68.00
2018-09-26T09:22:54.018Z,68.80
2018-09-26T09:25:22.540Z,67.90
2018-09-26T09:27:50.968Z,69.00
2018-09-26T09:30:19.383Z,70.40
2018-09-26T09:32:48.007Z,68.20
2018-09-26T09:35:16.669Z,66.90
2018-09-26T09:37:45.105Z,68.20
2018-09-26T09:40:13.647Z,67.10
2018-09-26T09:42:42.146Z,66.70
2018-09-26T09:45:10.630Z,65.10
2018-09-26T09:47:39.197Z,63.00
2018-09-26T09:50:07.811Z,64.50
2018-09-26T09:52:36.434Z,65.30
2018-09-26T09:55:05.270Z,64.70
2018-09-26T09:57:33.714Z,64.10
2018-09-26T10:00:02.209Z,64.30
2018-09-26T10:02:30.711Z,62.40
2018-09-26T10:04:59.362Z,61.80
2018-09-26T10:07:27.820Z,61.90
2018-09-26T10:09:56.432Z,59.80
2018-09-26T10:12:24.912Z,59.60
2018-09-26T10:14:53.391Z,60.50
2018-09-26T10:17:21.950Z,61.20
2018-09-26T10:19:50.625Z,62.30
2018-09-26T10:22:19.059Z,60.50
2018-09-26T10:24:47.570Z,62.50
2018-09-26T10:27:16.196Z,61.10
2018-09-26T10:29:44.672Z,63.00
2018-09-26T10:32:13.133Z,62.30
2018-09-26T10:34:41.844Z,63.70
2018-09-26T10:37:10.434Z,62.70
2018-09-26T10:39:38.945Z,61.70
2018-09-26T10:42:07.755Z,61.80
2018-09-26T10:44:36.367Z,61.50
2018-09-26T10:47:04.823Z,61.40
2018-09-26T10:49:33.331Z,61.60
2018-09-26T10:52:01.761Z,60.10
2018-09-26T10:54:30.203Z,60.10
2018-09-26T10:56:58.714Z,68.50
2018-09-26T10:59:27.132Z,70.90
2018-09-26T11:01:55.742Z,67.10
2018-09-26T11:04:24.717Z,62.30
2018-09-26T11:06:53.304Z,61.30
2018-09-26T11:09:21.762Z,60.50
2018-09-26T11:11:50.431Z,66.20
2018-09-26T11:14:18.887Z,62.10
2018-09-26T11:16:47.532Z,62.60
2018-09-26T11:19:16.031Z,61.00
2018-09-26T11:21:44.660Z,60.20
2018-09-26T11:24:13.127Z,58.40
2018-09-26T11:26:41.628Z,58.90
2018-09-26T11:29:10.175Z,59.70
2018-09-26T11:31:38.630Z,58.90
2018-09-26T11:34:07.182Z,58.80
2018-09-26T11:36:35.817Z,56.60
2018-09-26T11:39:05.366Z,55.40
2018-09-26T11:41:34.149Z,56.50
2018-09-26T11:44:02.634Z,56.70
2018-09-26T11:46:31.089Z,57.40
2018-09-26T11:48:59.518Z,55.00
2018-09-26T11:51:28.090Z,55.50
2018-09-26T11:53:56.608Z,54.90
2018-09-26T11:58:53.483Z,52.50
2018-09-26T12:01:22.047Z,52.60
2018-09-26T12:03:50.721Z,52.40
2018-09-26T12:06:19.217Z,51.90
2018-09-26T12:08:49.235Z,51.00
2018-09-26T12:11:17.667Z,51.00
2018-09-26T12:13:46.159Z,50.80
2018-09-26T12:16:14.896Z,49.80
2018-09-26T12:18:43.456Z,49.60
2018-09-26T12:21:11.878Z,49.30
2018-09-26T12:23:40.374Z,46.90
2018-09-26T12:26:08.836Z,48.60
2018-09-26T12:28:37.287Z,47.70
2018-09-26T12:31:05.827Z,47.50
2018-09-26T12:33:34.351Z,46.90
2018-09-26T12:36:03.367Z,48.90
2018-09-26T12:38:31.852Z,51.20
2018-09-26T12:41:00.267Z,48.90
2018-09-26T12:43:28.747Z,47.60
2018-09-26T12:45:57.470Z,46.60
2018-09-26T12:48:25.998Z,47.00
2018-09-26T12:50:54.504Z,47.40
2018-09-26T12:53:23.038Z,44.60
2018-09-26T12:55:51.612Z,44.70
2018-09-26T12:58:20.238Z,43.30
2018-09-26T13:00:48.855Z,43.40
2018-09-26T13:03:17.506Z,42.60
2018-09-26T13:05:45.944Z,40.70
2018-09-26T13:08:14.484Z,42.80
2018-09-26T13:10:43.055Z,43.00
2018-09-26T13:13:11.521Z,42.40
2018-09-26T13:15:40.019Z,42.20
2018-09-26T13:18:08.561Z,42.50
2018-09-26T13:20:37.598Z,41.60
2018-09-26T13:23:06.179Z,42.30
2018-09-26T13:25:34.846Z,43.50
2018-09-26T13:28:03.336Z,40.80
2018-09-26T13:30:31.795Z,40.30
2018-09-26T13:33:00.522Z,40.20
2018-09-26T13:35:29.040Z,38.20
2018-09-26T13:37:57.492Z,37.80
2018-09-26T13:40:26.617Z,37.50
2018-09-26T13:42:55.141Z,38.00
2018-09-26T13:45:23.649Z,37.10
2018-09-26T13:47:52.409Z,38.50
2018-09-26T13:50:21.105Z,37.00
2018-09-26T14:00:17.302Z,35.00
2018-09-26T14:02:47.140Z,34.80
2018-09-26T14:05:16.326Z,34.80
2018-09-26T14:07:45.326Z,34.40
2018-09-26T14:10:14.364Z,31.70
2018-09-26T14:12:43.411Z,32.20
2018-09-26T14:15:12.398Z,29.40
2018-09-26T14:17:41.422Z,28.20
2018-09-26T14:20:10.480Z,27.90
2018-09-26T14:22:39.732Z,27.30
2018-09-26T14:25:08.840Z,26.90
2018-09-26T14:27:37.924Z,26.50
2018-09-26T14:30:07.343Z,25.50
2018-09-26T14:32:36.506Z,24.50
2018-09-26T14:35:05.583Z,24.80
2018-09-26T14:37:34.842Z,24.50
2018-09-26T14:40:03.835Z,24.50
2018-09-26T14:42:32.925Z,24.40
2018-09-26T14:45:02.072Z,24.90
2018-09-26T14:54:57.483Z,23.80
2018-09-26T14:59:55.385Z,24.70
2018-09-26T15:02:24.478Z,25.00
2018-09-26T15:04:53.618Z,25.20
2018-09-26T15:17:17.664Z,25.20
2018-09-26T15:19:46.659Z,25.50
2018-09-26T15:24:44.562Z,26.00
2018-09-26T15:27:13.515Z,26.30
2018-09-26T15:29:42.686Z,27.60
2018-09-26T15:32:11.765Z,28.60
2018-09-26T15:34:40.961Z,29.30
2018-09-26T15:37:10.030Z,30.70
2018-09-26T15:42:07.765Z,34.20
2018-09-26T15:44:36.970Z,36.20
2018-09-26T15:54:29.866Z,43.10
2018-09-26T16:01:54.500Z,46.60
2018-09-26T16:04:24.808Z,48.10
2018-09-26T16:06:53.352Z,49.10
2018-09-26T16:09:21.801Z,50.10
2018-09-26T16:14:18.549Z,51.50
2018-09-26T16:16:47.251Z,52.20
2018-09-26T16:19:15.769Z,53.00
2018-09-26T16:21:44.418Z,55.20
2018-09-26T16:24:12.917Z,55.60
2018-09-26T16:26:41.573Z,55.40
2018-09-26T16:29:10.102Z,56.50
2018-09-26T16:31:38.595Z,57.20
2018-09-26T16:34:07.309Z,58.70
2018-09-26T16:36:35.924Z,58.50
2018-09-26T16:39:06.462Z,59.00
2018-09-26T16:41:35.109Z,60.60
2018-09-26T16:44:03.552Z,61.60
2018-09-26T16:46:32.000Z,61.40
2018-09-26T16:49:00.451Z,62.60
2018-09-26T16:51:29.028Z,64.80
2018-09-26T16:53:57.485Z,65.50
2018-09-26T16:56:25.962Z,65.30
2018-09-26T16:58:54.409Z,66.60
2018-09-26T17:01:22.932Z,67.40
2018-09-26T17:03:51.382Z,69.10
2018-09-26T17:06:19.830Z,69.80
2018-09-26T17:08:48.455Z,71.10
2018-09-26T17:11:16.929Z,72.10
2018-09-26T17:13:46.556Z,72.60
2018-09-26T17:16:17.580Z,73.60
2018-09-26T17:18:46.143Z,74.20
2018-09-26T17:21:14.586Z,73.20
2018-09-26T17:23:43.136Z,74.40
2018-09-26T17:26:11.592Z,75.10
2018-09-26T17:28:44.074Z,76.50
2018-09-26T17:31:17.344Z,77.80
2018-09-26T17:33:46.960Z,76.50
2018-09-26T17:36:16.504Z,78.90
2018-09-26T17:38:45.114Z,79.50
2018-09-26T17:41:13.622Z,79.20
2018-09-26T17:43:42.040Z,78.80
2018-09-26T17:46:10.479Z,79.50
2018-09-26T17:48:38.980Z,80.20
2018-09-26T17:51:07.524Z,81.80
2018-09-26T17:56:04.299Z,82.30
2018-09-26T17:58:32.956Z,83.00
2018-09-26T18:01:01.416Z,82.10
2018-09-26T18:03:29.873Z,82.10
2018-09-26T18:05:58.287Z,83.00
2018-09-26T18:08:26.974Z,83.40
2018-09-26T18:10:55.389Z,84.10
2018-09-26T18:15:57.945Z,84.70
2018-09-26T18:18:26.412Z,84.20
2018-09-26T18:23:23.953Z,84.00
2018-09-26T18:30:49.175Z,84.90
2018-09-26T18:33:17.848Z,85.90
2018-09-26T18:35:46.713Z,86.50
2018-09-26T18:40:43.590Z,87.20
2018-09-26T18:43:12.172Z,87.40
2018-09-26T18:45:40.717Z,87.40
2018-09-26T18:50:37.518Z,87.20
2018-09-26T18:53:06.199Z,87.80
2018-09-26T18:55:34.809Z,87.50
2018-09-26T19:02:59.666Z,88.20
2018-09-26T19:05:28.278Z,88.90
2018-09-26T19:07:56.752Z,87.90
2018-09-26T19:10:25.182Z,89.00
2018-09-26T19:15:21.840Z,88.70
2018-09-26T19:20:18.485Z,89.80
2018-09-26T19:22:46.953Z,90.30
2018-09-26T19:25:15.463Z,90.20
2018-09-26T19:40:06.066Z,90.20
2018-09-26T19:42:34.532Z,90.80
2018-09-26T19:45:03.071Z,91.00
2018-09-26T19:54:56.321Z,91.10
2018-09-26T20:04:49.221Z,91.80
2018-09-26T20:19:38.451Z,90.90
2018-09-26T20:27:03.975Z,90.80
2018-09-26T20:29:32.686Z,90.70
2018-09-26T20:34:29.384Z,91.40
2018-09-26T20:36:57.845Z,91.50
2018-09-26T20:39:26.415Z,91.80
2018-09-26T20:41:54.856Z,92.10
2018-09-26T20:44:23.399Z,92.10
2018-09-26T20:46:51.871Z,91.80
2018-09-26T20:49:20.526Z,92.30
2018-09-26T20:51:49.037Z,92.30
2018-09-26T20:54:17.638Z,92.00
2018-09-26T20:56:46.092Z,92.40
2018-09-26T20:59:14.553Z,92.80
2018-09-26T21:01:43.167Z,92.50
2018-09-26T21:04:11.811Z,92.30
2018-09-26T21:06:40.269Z,92.60
2018-09-26T21:09:09.958Z,92.90
2018-09-26T21:11:38.481Z,93.00
2018-09-26T21:14:07.627Z,92.70
2018-09-26T21:16:36.142Z,92.60
2018-09-26T21:19:04.613Z,92.60
2018-09-26T21:21:33.094Z,92.80
2018-09-26T21:24:01.564Z,92.50
2018-09-26T21:28:58.200Z,92.20
2018-09-26T21:31:26.640Z,92.10
2018-09-26T21:33:55.087Z,91.90
2018-09-26T21:36:23.523Z,92.20
2018-09-26T21:38:52.033Z,92.20
2018-09-26T21:41:20.881Z,92.10
2018-09-26T21:43:49.371Z,91.90
2018-09-26T21:46:17.878Z,91.90
2018-09-26T21:48:46.319Z,91.90
2018-09-26T21:51:14.786Z,91.90
2018-09-26T21:53:43.443Z,91.90
2018-09-26T21:56:11.921Z,91.90
2018-09-26T21:58:40.432Z,92.00
2018-09-26T22:01:13.128Z,92.30
2018-09-26T22:03:41.972Z,91.90
2018-09-26T22:06:10.683Z,92.10
2018-09-26T22:08:39.825Z,92.40
2018-09-26T22:11:08.637Z,92.90
2018-09-26T22:13:37.480Z,92.90
2018-09-26T22:16:06.007Z,92.70
2018-09-26T22:18:34.516Z,92.70
2018-09-26T22:21:02.969Z,92.90
2018-09-26T22:23:31.532Z,92.80
2018-09-26T22:26:00.080Z,92.80
2018-09-26T22:28:28.593Z,93.00
2018-09-26T22:30:57.184Z,93.20
2018-09-26T22:33:25.606Z,93.10
2018-09-26T22:35:54.056Z,93.20
2018-09-26T22:38:22.472Z,93.40
2018-09-26T22:40:50.914Z,93.30
2018-09-26T22:43:19.629Z,93.30
2018-09-26T22:45:48.209Z,93.50
2018-09-26T22:48:16.712Z,93.80
2018-09-26T22:50:45.275Z,94.00
2018-09-26T22:53:13.770Z,93.90
2018-09-26T22:55:45.420Z,94.00
2018-09-26T22:58:14.073Z,94.00
2018-09-26T23:00:42.711Z,94.10
2018-09-26T23:03:11.154Z,94.30
2018-09-26T23:05:39.907Z,94.30
2018-09-26T23:08:09.475Z,95.40
2018-09-26T23:10:40.519Z,94.80
2018-09-26T23:13:09.205Z,94.80
2018-09-26T23:15:37.659Z,94.80
2018-09-26T23:18:06.165Z,95.40
2018-09-26T23:20:34.643Z,95.40
2018-09-26T23:23:03.149Z,95.50
2018-09-26T23:25:31.626Z,95.60
2018-09-26T23:28:00.803Z,95.90
2018-09-26T23:30:29.250Z,95.70
2018-09-26T23:32:57.706Z,95.70
2018-09-26T23:35:26.101Z,95.90
2018-09-26T23:37:54.557Z,96.40
2018-09-26T23:40:22.984Z,96.60
2018-09-26T23:42:51.479Z,96.70
2018-09-26T23:45:19.963Z,96.90
2018-09-26T23:47:48.451Z,97.40
2018-09-26T23:50:16.915Z,96.70
2018-09-26T23:52:45.423Z,96.60
2018-09-26T23:55:13.885Z,96.90
2018-09-26T23:57:42.348Z,96.80
